createdAt,value
2023-05-11T00:02:17.713Z,15.83
2023-05-11T00:07:19.254Z,15.84
2023-05-11T00:12:20.925Z,15.84
2023-05-11T00:17:22.577Z,15.82
2023-05-11T00:22:24.291Z,15.82
2023-05-11T00:27:26.004Z,15.79
2023-05-11T00:32:27.627Z,15.78
2023-05-11T00:37:29.515Z,15.76
2023-05-11T00:42:31.294Z,15.74
2023-05-11T00:47:33.223Z,15.73
2023-05-11T00:52:35.010Z,15.68
2023-05-11T00:57:38.235Z,15.64
2023-05-11T01:02:40.679Z,15.58
2023-05-11T01:07:53.610Z,15.55
2023-05-11T01:13:01.587Z,15.52
2023-05-11T01:18:25.234Z,15.51
2023-05-11T01:24:00.127Z,15.50
2023-05-11T01:29:22.270Z,15.46
2023-05-11T01:34:30.732Z,15.43
2023-05-11T01:39:38.372Z,15.40
2023-05-11T01:44:44.327Z,15.42
2023-05-11T01:49:46.050Z,15.41
2023-05-11T01:54:51.400Z,15.39
2023-05-11T01:59:55.838Z,15.39
2023-05-11T02:04:59.590Z,15.36
2023-05-11T02:10:02.704Z,15.31
2023-05-11T02:15:09.904Z,15.31
2023-05-11T02:20:12.252Z,15.32
2023-05-11T02:25:15.438Z,15.35
2023-05-11T02:30:17.644Z,15.33
2023-05-11T02:35:37.427Z,15.27
2023-05-11T02:40:45.811Z,15.25
2023-05-11T02:45:50.416Z,15.25
2023-05-11T02:50:55.335Z,15.26
2023-05-11T02:56:00.628Z,15.24
2023-05-11T03:01:06.400Z,15.23
2023-05-11T03:06:08.178Z,15.22
2023-05-11T03:11:11.075Z,15.24
2023-05-11T03:16:14.537Z,15.25
2023-05-11T03:21:21.225Z,15.25
2023-05-11T03:26:24.033Z,15.22
2023-05-11T03:31:25.891Z,15.16
2023-05-11T03:36:28.812Z,15.11
2023-05-11T03:41:32.102Z,15.07
2023-05-11T03:46:37.963Z,15.02
2023-05-11T03:51:41.874Z,14.94
2023-05-11T03:56:44.052Z,14.80
2023-05-11T04:01:46.693Z,14.71
2023-05-11T04:06:48.829Z,14.70
2023-05-11T04:11:53.758Z,14.71
2023-05-11T04:16:56.241Z,14.70
2023-05-11T04:21:57.738Z,14.68
2023-05-11T04:26:59.250Z,14.71
2023-05-11T04:32:01.377Z,14.71
2023-05-11T04:37:07.245Z,14.74
2023-05-11T04:42:09.822Z,14.77
2023-05-11T04:47:12.028Z,14.78
2023-05-11T04:52:13.680Z,14.81
2023-05-11T04:57:17.809Z,14.86
2023-05-11T05:02:21.406Z,14.88
2023-05-11T05:07:23.028Z,14.89
2023-05-11T05:12:24.556Z,14.83
2023-05-11T05:17:26.211Z,14.84
2023-05-11T05:22:27.911Z,14.86
2023-05-11T05:27:30.561Z,14.89
2023-05-11T05:32:33.812Z,14.91
2023-05-11T05:37:37.400Z,14.90
2023-05-11T05:42:39.416Z,14.94
2023-05-11T05:47:42.816Z,14.92
2023-05-11T05:52:44.583Z,14.91
2023-05-11T05:57:48.789Z,14.90
2023-05-11T06:02:51.155Z,14.87
2023-05-11T06:08:09.250Z,14.84
2023-05-11T06:13:12.373Z,14.87
2023-05-11T06:18:16.237Z,14.84
2023-05-11T06:23:19.208Z,14.81
2023-05-11T06:28:24.328Z,14.78
2023-05-11T06:33:27.817Z,14.77
2023-05-11T06:38:31.046Z,14.73
2023-05-11T06:43:35.517Z,14.70
2023-05-11T06:48:38.610Z,14.68
2023-05-11T06:53:41.603Z,14.69
2023-05-11T06:58:43.714Z,14.66
2023-05-11T07:03:47.844Z,14.65
2023-05-11T07:08:50.916Z,14.64
2023-05-11T07:13:52.495Z,14.63
2023-05-11T07:18:54.072Z,14.63
2023-05-11T07:23:55.950Z,14.56
2023-05-11T07:28:58.511Z,14.51
2023-05-11T07:34:00.004Z,14.49
2023-05-11T07:39:01.898Z,14.45
2023-05-11T07:44:03.428Z,14.46
2023-05-11T07:49:15.689Z,14.46
2023-05-11T07:54:22.514Z,14.46
2023-05-11T07:59:24.084Z,14.37
2023-05-11T08:04:27.817Z,14.26
2023-05-11T08:09:29.625Z,14.25
2023-05-11T08:14:32.224Z,14.22
2023-05-11T08:19:33.798Z,14.22
2023-05-11T08:24:35.362Z,14.22
2023-05-11T08:29:38.563Z,14.29
2023-05-11T08:34:40.318Z,14.38
2023-05-11T08:44:48.082Z,14.50
2023-05-11T08:49:51.126Z,14.60
2023-05-11T08:54:53.306Z,14.69
2023-05-11T08:59:54.906Z,14.78
2023-05-11T09:04:58.577Z,14.82
2023-05-11T09:10:00.287Z,14.77
2023-05-11T09:15:02.266Z,14.81
2023-05-11T09:20:06.438Z,14.86
2023-05-11T09:25:11.502Z,14.90
2023-05-11T09:30:23.150Z,15.05
2023-05-11T09:35:26.431Z,15.13
2023-05-11T09:40:33.935Z,15.10
2023-05-11T09:45:38.269Z,15.01
2023-05-11T09:50:39.893Z,14.93
2023-05-11T09:55:55.923Z,14.95
2023-05-11T10:00:57.685Z,14.97
2023-05-11T10:06:00.780Z,15.06
2023-05-11T10:11:07.525Z,15.18
2023-05-11T10:16:10.067Z,15.29
2023-05-11T10:21:12.609Z,15.41
2023-05-11T10:26:15.174Z,15.44
2023-05-11T10:31:23.734Z,15.43
2023-05-11T10:36:26.237Z,15.38
2023-05-11T10:41:39.513Z,15.32
2023-05-11T10:47:00.322Z,15.41
2023-05-11T10:52:18.172Z,15.42
2023-05-11T10:57:22.879Z,15.50
2023-05-11T11:02:31.334Z,15.54
2023-05-11T11:07:52.752Z,15.63
2023-05-11T11:13:05.430Z,15.76
2023-05-11T11:18:20.783Z,15.84
2023-05-11T11:23:42.428Z,15.90
2023-05-11T11:29:02.218Z,15.94
2023-05-11T11:34:30.460Z,15.96
2023-05-11T11:39:41.127Z,15.99
2023-05-11T11:44:44.790Z,16.03
2023-05-11T11:49:52.160Z,16.12
2023-05-11T11:54:55.835Z,16.18
2023-05-11T11:59:58.828Z,16.25
2023-05-11T12:05:14.085Z,16.32
2023-05-11T12:10:20.022Z,16.34
2023-05-11T12:15:26.309Z,16.39
2023-05-11T12:20:28.379Z,16.43
2023-05-11T12:25:29.958Z,16.45
2023-05-11T12:30:33.831Z,16.47
2023-05-11T12:35:35.464Z,16.49
2023-05-11T12:40:38.635Z,16.45
2023-05-11T12:45:40.220Z,16.41
2023-05-11T12:50:47.450Z,16.41
2023-05-11T12:55:59.366Z,16.45
2023-05-11T13:01:01.605Z,16.49
2023-05-11T13:06:04.698Z,16.53
2023-05-11T13:11:24.588Z,16.55
2023-05-11T13:16:31.992Z,16.57
2023-05-11T13:21:34.010Z,16.55
2023-05-11T13:26:36.751Z,16.56
2023-05-11T13:31:43.665Z,16.54
2023-05-11T13:36:46.957Z,16.54
2023-05-11T13:41:48.555Z,16.52
2023-05-11T13:46:50.364Z,16.53
2023-05-11T13:51:52.505Z,16.52
2023-05-11T13:56:54.179Z,16.51
2023-05-11T14:01:55.909Z,16.51
2023-05-11T14:06:58.657Z,16.50
2023-05-11T14:12:01.052Z,16.49
2023-05-11T14:17:02.667Z,16.50
2023-05-11T14:22:05.140Z,16.46
2023-05-11T14:27:06.698Z,16.45
2023-05-11T14:32:08.230Z,16.41
2023-05-11T14:37:09.805Z,16.40
2023-05-11T14:42:11.565Z,16.39
2023-05-11T14:47:13.112Z,16.42
2023-05-11T14:52:15.437Z,16.42
2023-05-11T14:57:17.584Z,16.42
2023-05-11T15:02:19.081Z,16.41
2023-05-11T15:07:21.233Z,16.37
2023-05-11T15:12:23.765Z,16.38
2023-05-11T15:17:26.849Z,16.37
2023-05-11T15:22:28.509Z,16.36
2023-05-11T15:27:31.054Z,16.36
2023-05-11T15:32:32.622Z,16.36
2023-05-11T15:37:34.208Z,16.35
2023-05-11T15:42:35.691Z,16.36
2023-05-11T15:47:37.962Z,16.36
2023-05-11T15:52:42.877Z,16.35
2023-05-11T15:57:44.429Z,16.35
2023-05-11T16:02:46.188Z,16.36
2023-05-11T16:07:47.921Z,16.36
2023-05-11T16:12:49.418Z,16.33
2023-05-11T16:17:51.425Z,16.32
2023-05-11T16:22:53.204Z,16.28
2023-05-11T16:27:54.727Z,16.23
2023-05-11T16:32:56.244Z,16.19
2023-05-11T16:37:59.477Z,16.13
2023-05-11T16:43:01.373Z,16.06
2023-05-11T16:48:03.110Z,15.99
2023-05-11T16:53:05.216Z,15.96
2023-05-11T16:58:06.727Z,15.92
2023-05-11T17:03:08.400Z,15.88
2023-05-11T17:08:09.956Z,15.85
2023-05-11T17:13:11.836Z,15.81
2023-05-11T17:18:13.374Z,15.80
2023-05-11T17:23:15.310Z,15.78
2023-05-11T17:28:16.921Z,15.77
2023-05-11T17:33:18.814Z,15.76
2023-05-11T17:38:20.671Z,15.73
2023-05-11T17:43:22.263Z,15.68
2023-05-11T17:48:24.179Z,15.68
2023-05-11T17:53:26.017Z,15.65
2023-05-11T17:58:27.714Z,15.61
2023-05-11T18:03:29.393Z,15.60
2023-05-11T18:08:31.214Z,15.57
2023-05-11T18:13:32.870Z,15.55
2023-05-11T18:18:36.642Z,15.52
2023-05-11T18:23:38.371Z,15.51
2023-05-11T18:28:39.906Z,15.49
2023-05-11T18:33:41.500Z,15.48
2023-05-11T18:38:43.845Z,15.45
2023-05-11T18:43:45.604Z,15.43
2023-05-11T18:48:50.439Z,15.39
2023-05-11T18:53:52.262Z,15.36
2023-05-11T18:58:53.857Z,15.34
2023-05-11T19:03:56.148Z,15.31
2023-05-11T19:08:57.740Z,15.23
2023-05-11T19:13:59.447Z,15.20
2023-05-11T19:19:03.421Z,15.16
2023-05-11T19:24:05.245Z,15.14
2023-05-11T19:29:09.135Z,15.12
2023-05-11T19:34:10.967Z,15.09
2023-05-11T19:39:12.862Z,15.07
2023-05-11T19:44:14.383Z,15.05
2023-05-11T19:49:16.683Z,15.04
2023-05-11T19:54:18.198Z,15.04
2023-05-11T19:59:20.164Z,15.02
2023-05-11T20:04:21.723Z,14.98
2023-05-11T20:09:24.920Z,14.97
2023-05-11T20:14:27.228Z,14.93
2023-05-11T20:19:28.846Z,14.90
2023-05-11T20:24:30.861Z,14.89
2023-05-11T20:29:32.720Z,14.87
2023-05-11T20:34:34.540Z,14.84
2023-05-11T20:39:36.362Z,14.85
2023-05-11T20:44:38.020Z,14.82
2023-05-11T20:49:39.745Z,14.77
2023-05-11T20:54:41.473Z,14.72
2023-05-11T21:04:47.608Z,14.66
2023-05-11T21:09:49.152Z,14.65
2023-05-11T21:14:50.770Z,14.67
2023-05-11T21:19:52.306Z,14.64
2023-05-11T21:24:53.826Z,14.64
2023-05-11T21:29:56.339Z,14.66
2023-05-11T21:34:58.045Z,14.67
2023-05-11T21:40:00.358Z,14.66
2023-05-11T21:45:03.063Z,14.64
2023-05-11T21:50:05.824Z,14.63
2023-05-11T21:55:07.984Z,14.62
2023-05-11T22:00:11.139Z,14.61
2023-05-11T22:05:13.797Z,14.60
2023-05-11T22:10:15.489Z,14.59
2023-05-11T22:15:17.130Z,14.59
2023-05-11T22:20:18.951Z,14.58
2023-05-11T22:25:20.620Z,14.57
2023-05-11T22:30:22.581Z,14.55
2023-05-11T22:35:24.421Z,14.54
2023-05-11T22:40:25.998Z,14.53
2023-05-11T22:45:27.491Z,14.54
2023-05-11T22:50:29.608Z,14.53
2023-05-11T22:55:31.192Z,14.53
2023-05-11T23:00:33.086Z,14.55
2023-05-11T23:05:34.718Z,14.55
2023-05-11T23:10:36.283Z,14.53
2023-05-11T23:15:37.798Z,14.51
2023-05-11T23:20:39.385Z,14.51
2023-05-11T23:25:41.144Z,14.52
2023-05-11T23:30:45.799Z,14.52
2023-05-11T23:35:47.894Z,14.54
2023-05-11T23:40:49.524Z,14.54
2023-05-11T23:45:57.402Z,14.55
2023-05-11T23:50:59.052Z,14.54
2023-05-11T23:56:00.548Z,14.54
